Time;durP1;ratioP1;P1;durP2;ratioP2;P2;SDS_P1;SDS_P2;PMS_P1;PMS_P2;Temp;Humidity;BMP_temperature;BMP_pressure;BME280_temperature;BME280_humidity;BME280_pressure;Samples;Min_cycle;Max_cycle;Signal;HPM_P1;HPM_P2
2021/08/28 00:00:58;;;;;;;;;;;15.60;99.90;;;;;;5060462;28;19912;-74
2021/08/28 00:03:24;;;;;;;;;;;15.60;99.90;;;;;;5042122;28;19931;-74
2021/08/28 00:05:49;;;;;;;;;;;15.70;99.90;;;;;;5059833;28;19940;-73
2021/08/28 00:08:15;;;;;;;;;;;15.70;99.90;;;;;;5042106;28;20377;-73
2021/08/28 00:10:41;;;;;;;;;;;15.70;99.90;;;;;;5041648;28;19959;-74
2021/08/28 00:13:06;;;;;;;;;;;15.80;99.90;;;;;;5059973;28;19913;-73
2021/08/28 00:15:32;;;;;;;;;;;15.70;99.90;;;;;;5059459;28;20300;-73
2021/08/28 00:17:57;;;;;;;;;;;15.70;99.90;;;;;;5059654;28;20412;-73
2021/08/28 00:20:23;;;;;;;;;;;15.80;99.90;;;;;;5059901;28;19908;-73
2021/08/28 00:22:49;;;;;;;;;;;15.80;99.90;;;;;;5041397;28;19936;-73
2021/08/28 00:25:14;;;;;;;;;;;15.80;99.90;;;;;;5059835;28;19905;-74
2021/08/28 00:27:40;;;;;;;;;;;15.90;99.90;;;;;;5059654;28;19991;-73
2021/08/28 00:30:06;;;;;;;;;;;15.90;99.90;;;;;;5058615;28;19909;-73
2021/08/28 00:32:32;;;;;;;;;;;15.90;99.90;;;;;;5058916;28;19999;-73
2021/08/28 00:34:57;;;;;;;;;;;16.00;99.90;;;;;;5059053;28;19947;-74
2021/08/28 00:37:22;;;;;;;;;;;16.00;99.90;;;;;;5058854;28;19912;-73
2021/08/28 00:39:48;;;;;;;;;;;16.00;99.90;;;;;;5058463;28;19923;-73
2021/08/28 00:42:13;;;;;;;;;;;16.10;99.90;;;;;;5058391;28;19995;-73
2021/08/28 00:44:40;;;;;;;;;;;16.20;99.90;;;;;;5058939;28;20358;-73
2021/08/28 00:47:05;;;;;;;;;;;16.00;99.90;;;;;;5058402;28;20393;-73
2021/08/28 00:49:31;;;;;;;;;;;16.00;99.90;;;;;;5059768;28;19905;-75
2021/08/28 00:51:57;;;;;;;;;;;15.90;99.90;;;;;;5042848;28;19904;-75
2021/08/28 00:54:22;;;;;;;;;;;15.80;99.90;;;;;;5042270;28;19909;-73
2021/08/28 00:56:48;;;;;;;;;;;15.50;99.90;;;;;;5059497;28;19927;-73
2021/08/28 00:59:14;;;;;;;;;;;15.50;99.90;;;;;;5061143;28;19905;-73
2021/08/28 01:01:41;;;;;;;;;;;15.50;99.90;;;;;;5062174;28;19919;-73
2021/08/28 01:04:08;;;;;;;;;;;15.40;99.90;;;;;;5062806;28;19958;-73
2021/08/28 01:06:46;;;;;;;;;;;15.50;99.90;;;;;;5061076;28;19908;-76
2021/08/28 01:09:17;;;;;;;;;;;15.50;99.90;;;;;;5061418;28;19904;-74
2021/08/28 01:11:47;;;;;;;;;;;15.50;99.90;;;;;;5059434;28;19909;-74
2021/08/28 01:14:13;;;;;;;;;;;15.50;99.90;;;;;;5060812;28;19908;-73
2021/08/28 01:16:41;;;;;;;;;;;15.60;99.90;;;;;;5056860;28;19909;-76
2021/08/28 01:19:11;;;;;;;;;;;15.60;99.90;;;;;;5051395;28;19908;-74
2021/08/28 01:21:37;;;;;;;;;;;15.70;99.90;;;;;;5051844;28;20058;-74
2021/08/28 01:24:04;;;;;;;;;;;15.70;99.90;;;;;;5048455;28;19951;-75
2021/08/28 01:26:53;;;;;;;;;;;15.70;99.90;;;;;;5055114;28;19950;-75
2021/08/28 01:29:20;;;;;;;;;;;15.50;99.90;;;;;;5058570;28;19905;-74
2021/08/28 01:31:49;;;;;;;;;;;15.60;99.90;;;;;;5059444;28;20349;-74
2021/08/28 01:34:16;;;;;;;;;;;15.50;99.90;;;;;;5060073;28;19972;-75
2021/08/28 01:36:42;;;;;;;;;;;15.50;99.90;;;;;;5041566;28;20359;-74
2021/08/28 01:39:09;;;;;;;;;;;15.50;99.90;;;;;;5058363;28;19905;-74
2021/08/28 01:41:36;;;;;;;;;;;15.60;99.90;;;;;;5059284;28;19908;-73
2021/08/28 01:44:01;;;;;;;;;;;15.70;99.90;;;;;;5059435;28;19915;-73
2021/08/28 01:46:27;;;;;;;;;;;15.70;99.90;;;;;;5059211;28;19905;-73
2021/08/28 01:48:52;;;;;;;;;;;15.70;99.90;;;;;;5041735;28;19905;-73
2021/08/28 01:51:18;;;;;;;;;;;15.80;99.90;;;;;;5060304;28;19908;-73
2021/08/28 01:53:44;;;;;;;;;;;15.80;99.90;;;;;;5059838;28;20427;-73
2021/08/28 01:56:10;;;;;;;;;;;15.70;99.90;;;;;;5059901;28;19964;-73
2021/08/28 01:58:38;;;;;;;;;;;15.80;99.90;;;;;;5057598;28;19927;-73
2021/08/28 02:01:03;;;;;;;;;;;15.90;99.90;;;;;;5059519;28;19911;-73
2021/08/28 02:03:29;;;;;;;;;;;15.80;99.90;;;;;;5059058;28;19956;-74
2021/08/28 02:06:00;;;;;;;;;;;15.70;99.90;;;;;;5059840;28;19908;-73
2021/08/28 02:08:30;;;;;;;;;;;15.60;99.90;;;;;;5059992;28;20042;-73
2021/08/28 02:10:58;;;;;;;;;;;15.50;99.90;;;;;;5059469;28;20392;-73
2021/08/28 02:13:26;;;;;;;;;;;15.40;99.90;;;;;;5060280;28;19912;-73
2021/08/28 02:15:53;;;;;;;;;;;15.40;99.90;;;;;;5059251;28;20046;-73
2021/08/28 02:18:25;;;;;;;;;;;15.30;99.90;;;;;;5059919;28;20309;-75
2021/08/28 02:20:55;;;;;;;;;;;15.40;99.90;;;;;;5061030;28;19955;-73
2021/08/28 02:23:28;;;;;;;;;;;15.50;99.90;;;;;;5060188;28;19909;-73
2021/08/28 02:25:59;;;;;;;;;;;15.60;99.90;;;;;;5061796;28;19905;-73
2021/08/28 02:28:33;;;;;;;;;;;15.70;99.90;;;;;;5059036;28;19959;-73
2021/08/28 02:30:59;;;;;;;;;;;15.60;99.90;;;;;;5057830;28;19912;-73
2021/08/28 02:33:25;;;;;;;;;;;15.50;99.90;;;;;;5058603;28;19912;-73
2021/08/28 02:35:50;;;;;;;;;;;15.50;99.90;;;;;;5058660;28;19904;-73
2021/08/28 02:38:16;;;;;;;;;;;15.50;99.90;;;;;;5060596;28;20261;-73
2021/08/28 02:40:44;;;;;;;;;;;15.60;99.90;;;;;;5062473;28;19931;-73
2021/08/28 02:43:10;;;;;;;;;;;15.60;99.90;;;;;;5062306;28;19966;-73
2021/08/28 02:45:36;;;;;;;;;;;15.60;99.90;;;;;;5062716;28;19916;-73
2021/08/28 02:48:03;;;;;;;;;;;15.60;99.90;;;;;;5045874;28;19904;-73
2021/08/28 02:50:29;;;;;;;;;;;15.70;99.90;;;;;;5043704;28;19927;-73
2021/08/28 02:52:56;;;;;;;;;;;15.60;99.90;;;;;;5063281;28;19905;-73
2021/08/28 02:55:22;;;;;;;;;;;15.70;99.90;;;;;;5062650;28;19995;-74
2021/08/28 02:57:48;;;;;;;;;;;15.60;99.90;;;;;;5062526;28;19954;-74
2021/08/28 03:00:16;;;;;;;;;;;15.50;99.90;;;;;;5061025;28;19904;-75
2021/08/28 03:02:42;;;;;;;;;;;15.50;99.90;;;;;;5044603;28;19994;-74
2021/08/28 03:05:10;;;;;;;;;;;15.50;99.90;;;;;;5061602;28;20309;-74
2021/08/28 03:07:35;;;;;;;;;;;15.60;99.90;;;;;;5045028;28;19915;-74
2021/08/28 03:10:02;;;;;;;;;;;15.60;99.90;;;;;;5062574;28;19991;-73
2021/08/28 03:12:28;;;;;;;;;;;15.70;99.90;;;;;;5042937;28;19912;-74
2021/08/28 03:14:53;;;;;;;;;;;15.70;99.90;;;;;;5061463;28;19927;-73
2021/08/28 03:17:19;;;;;;;;;;;15.60;99.90;;;;;;5062517;28;19927;-73
2021/08/28 03:19:46;;;;;;;;;;;15.50;99.90;;;;;;5062169;28;20443;-74
2021/08/28 03:22:14;;;;;;;;;;;15.50;99.90;;;;;;5062522;28;19905;-73
2021/08/28 03:24:40;;;;;;;;;;;15.60;99.90;;;;;;5044200;28;19983;-73
2021/08/28 03:27:06;;;;;;;;;;;15.70;99.90;;;;;;5061882;28;19904;-74
2021/08/28 03:29:33;;;;;;;;;;;15.80;99.90;;;;;;5061171;28;19905;-74
2021/08/28 03:31:59;;;;;;;;;;;15.70;99.90;;;;;;5043290;28;19905;-74
2021/08/28 03:34:24;;;;;;;;;;;15.60;99.90;;;;;;5061105;28;20251;-74
2021/08/28 03:36:50;;;;;;;;;;;15.60;99.90;;;;;;5061099;28;19950;-74
2021/08/28 03:39:16;;;;;;;;;;;15.60;99.90;;;;;;5057588;28;20046;-74
2021/08/28 03:41:41;;;;;;;;;;;15.40;99.90;;;;;;5040144;28;20262;-75
2021/08/28 03:44:11;;;;;;;;;;;15.40;99.90;;;;;;5057207;28;20007;-75
2021/08/28 03:46:37;;;;;;;;;;;15.40;99.90;;;;;;5058634;28;19904;-74
2021/08/28 03:49:02;;;;;;;;;;;15.50;99.90;;;;;;5038776;28;19904;-73
2021/08/28 03:51:28;;;;;;;;;;;15.50;99.90;;;;;;5039262;28;19912;-74
2021/08/28 03:53:53;;;;;;;;;;;15.50;99.90;;;;;;5056986;28;19905;-74
2021/08/28 03:56:19;;;;;;;;;;;15.50;99.90;;;;;;5057066;28;19989;-75
2021/08/28 03:58:44;;;;;;;;;;;15.60;99.90;;;;;;5056508;28;19916;-74
2021/08/28 04:01:10;;;;;;;;;;;15.60;99.90;;;;;;5058228;28;19970;-74
2021/08/28 04:03:35;;;;;;;;;;;15.60;99.90;;;;;;5061689;28;19912;-74
2021/08/28 04:06:01;;;;;;;;;;;15.60;99.90;;;;;;5062576;28;19908;-73
2021/08/28 04:08:26;;;;;;;;;;;15.60;99.90;;;;;;5061830;28;19904;-74
2021/08/28 04:10:52;;;;;;;;;;;15.60;99.90;;;;;;5061901;28;19905;-74
2021/08/28 04:13:17;;;;;;;;;;;15.50;99.90;;;;;;5063421;28;19912;-74
2021/08/28 04:15:43;;;;;;;;;;;15.50;99.90;;;;;;5066327;28;19905;-74
2021/08/28 04:18:08;;;;;;;;;;;15.50;99.90;;;;;;5068881;28;19912;-74
2021/08/28 04:20:34;;;;;;;;;;;15.40;99.90;;;;;;5066926;28;19927;-74
2021/08/28 04:22:59;;;;;;;;;;;15.40;99.90;;;;;;5065474;28;19940;-73
2021/08/28 04:25:25;;;;;;;;;;;15.50;99.90;;;;;;5070387;28;19916;-73
2021/08/28 04:27:51;;;;;;;;;;;15.50;99.90;;;;;;5070437;28;19908;-74
2021/08/28 04:30:16;;;;;;;;;;;15.40;99.90;;;;;;5060389;28;19905;-74
2021/08/28 04:32:42;;;;;;;;;;;15.50;99.90;;;;;;5043114;28;19911;-74
2021/08/28 04:35:08;;;;;;;;;;;15.60;99.90;;;;;;5060181;28;19915;-74
2021/08/28 04:37:33;;;;;;;;;;;15.50;99.90;;;;;;5059782;28;19905;-74
2021/08/28 04:39:59;;;;;;;;;;;15.50;99.90;;;;;;5055743;28;19912;-74
2021/08/28 04:42:24;;;;;;;;;;;15.50;99.90;;;;;;5057855;28;19904;-74
2021/08/28 04:44:53;;;;;;;;;;;15.40;99.90;;;;;;5059916;28;19913;-74
2021/08/28 04:47:19;;;;;;;;;;;15.40;99.90;;;;;;5037943;28;19905;-74
2021/08/28 04:49:44;;;;;;;;;;;15.40;99.90;;;;;;5055067;28;20455;-76
2021/08/28 04:52:10;;;;;;;;;;;15.60;99.90;;;;;;5061146;28;19904;-74
2021/08/28 04:54:35;;;;;;;;;;;15.70;99.90;;;;;;5042699;28;19988;-73
2021/08/28 04:57:01;;;;;;;;;;;15.80;99.90;;;;;;5042587;28;19909;-74
2021/08/28 04:59:26;;;;;;;;;;;15.80;99.90;;;;;;5042451;28;19911;-73
2021/08/28 05:01:52;;;;;;;;;;;15.90;99.90;;;;;;5061088;28;19905;-73
2021/08/28 05:04:17;;;;;;;;;;;15.90;99.90;;;;;;5058451;28;19908;-74
2021/08/28 05:06:43;;;;;;;;;;;16.00;99.90;;;;;;5049028;28;19931;-74
2021/08/28 05:09:08;;;;;;;;;;;16.00;99.90;;;;;;5058112;28;19915;-74
2021/08/28 05:11:34;;;;;;;;;;;16.00;99.90;;;;;;5049192;28;19915;-75
2021/08/28 05:14:13;;;;;;;;;;;16.10;99.90;;;;;;5032960;28;19944;-75
2021/08/28 05:16:38;;;;;;;;;;;16.00;99.90;;;;;;5054415;28;19909;-75
2021/08/28 05:19:04;;;;;;;;;;;16.00;99.90;;;;;;5038022;28;20000;-75
2021/08/28 05:21:31;;;;;;;;;;;16.10;99.90;;;;;;5050587;28;19980;-74
2021/08/28 05:23:56;;;;;;;;;;;16.10;99.90;;;;;;5056247;28;19912;-75
2021/08/28 05:26:22;;;;;;;;;;;16.10;99.90;;;;;;5060155;28;19908;-74
2021/08/28 05:28:48;;;;;;;;;;;15.90;99.90;;;;;;5048933;28;19931;-73
2021/08/28 05:31:13;;;;;;;;;;;15.70;99.90;;;;;;5046211;28;19932;-74
2021/08/28 05:33:39;;;;;;;;;;;15.60;99.90;;;;;;5051373;28;19909;-75
2021/08/28 05:36:05;;;;;;;;;;;15.50;99.90;;;;;;5050849;28;19955;-74
2021/08/28 05:38:30;;;;;;;;;;;15.70;99.90;;;;;;5058695;28;20362;-74
2021/08/28 05:40:56;;;;;;;;;;;15.70;99.90;;;;;;5052504;28;19909;-74
2021/08/28 05:43:22;;;;;;;;;;;15.80;99.90;;;;;;5049098;28;20358;-75
2021/08/28 05:45:47;;;;;;;;;;;15.90;99.90;;;;;;5036556;28;20358;-75
2021/08/28 05:48:13;;;;;;;;;;;16.00;99.90;;;;;;5052455;28;19905;-75
2021/08/28 05:50:38;;;;;;;;;;;16.00;99.90;;;;;;5050876;28;19908;-75
2021/08/28 05:53:04;;;;;;;;;;;16.10;99.90;;;;;;5044870;28;19912;-74
2021/08/28 05:55:29;;;;;;;;;;;16.10;99.90;;;;;;5049462;28;19909;-74
2021/08/28 05:57:55;;;;;;;;;;;16.20;99.90;;;;;;5054159;28;19909;-75
2021/08/28 06:00:20;;;;;;;;;;;16.20;99.90;;;;;;5037162;28;19915;-74
2021/08/28 06:02:46;;;;;;;;;;;16.20;99.90;;;;;;5052824;28;19905;-74
2021/08/28 06:05:14;;;;;;;;;;;16.00;99.90;;;;;;5043165;28;19905;-75
2021/08/28 06:07:39;;;;;;;;;;;15.90;99.90;;;;;;5044762;28;19904;-74
2021/08/28 06:10:06;;;;;;;;;;;15.60;99.90;;;;;;5045350;28;19909;-74
2021/08/28 06:12:32;;;;;;;;;;;15.40;99.90;;;;;;5052385;28;19913;-74
2021/08/28 06:14:58;;;;;;;;;;;15.40;99.90;;;;;;5054495;28;19904;-74
2021/08/28 06:17:25;;;;;;;;;;;15.30;99.90;;;;;;5056241;28;19916;-74
2021/08/28 06:19:51;;;;;;;;;;;15.30;99.90;;;;;;5056680;28;19940;-75
2021/08/28 06:22:16;;;;;;;;;;;15.30;99.90;;;;;;5034078;28;19913;-74
2021/08/28 06:24:42;;;;;;;;;;;15.40;99.90;;;;;;5044982;28;19909;-74
2021/08/28 06:27:08;;;;;;;;;;;15.60;99.90;;;;;;5048375;28;19916;-74
2021/08/28 06:29:34;;;;;;;;;;;15.50;99.90;;;;;;5060377;28;19908;-74
2021/08/28 06:31:59;;;;;;;;;;;15.60;99.90;;;;;;5059487;28;19912;-74
2021/08/28 06:34:25;;;;;;;;;;;15.70;99.90;;;;;;5044630;28;19992;-74
2021/08/28 06:36:50;;;;;;;;;;;15.60;99.90;;;;;;5054101;28;20372;-76
2021/08/28 06:39:16;;;;;;;;;;;15.50;99.90;;;;;;5055350;28;19908;-73
2021/08/28 06:41:41;;;;;;;;;;;15.60;99.90;;;;;;5050488;28;19905;-74
2021/08/28 06:44:06;;;;;;;;;;;15.60;99.90;;;;;;5055922;28;19909;-72
2021/08/28 06:46:32;;;;;;;;;;;15.70;99.90;;;;;;5055814;28;19916;-75
2021/08/28 06:48:58;;;;;;;;;;;15.90;99.90;;;;;;5046145;28;20251;-74
2021/08/28 06:51:23;;;;;;;;;;;15.70;99.90;;;;;;5038152;28;19931;-73
2021/08/28 06:53:49;;;;;;;;;;;15.70;99.90;;;;;;5046833;28;19911;-73
2021/08/28 06:56:15;;;;;;;;;;;15.90;99.90;;;;;;5063401;28;19938;-73
2021/08/28 06:58:41;;;;;;;;;;;15.90;99.90;;;;;;5062746;28;19909;-73
2021/08/28 07:01:06;;;;;;;;;;;15.80;99.90;;;;;;5062324;28;20003;-73
2021/08/28 07:03:32;;;;;;;;;;;15.90;99.90;;;;;;5043562;28;19909;-73
2021/08/28 07:05:57;;;;;;;;;;;15.80;99.90;;;;;;5046084;28;19905;-73
2021/08/28 07:08:23;;;;;;;;;;;15.80;99.90;;;;;;5040250;28;19909;-75
2021/08/28 07:10:49;;;;;;;;;;;15.80;99.90;;;;;;5044967;28;20350;-72
2021/08/28 07:13:14;;;;;;;;;;;15.90;99.90;;;;;;5040202;28;19920;-73
2021/08/28 07:15:40;;;;;;;;;;;15.90;99.90;;;;;;5053133;28;19909;-73
2021/08/28 07:18:07;;;;;;;;;;;15.80;99.90;;;;;;5058789;28;19913;-73
2021/08/28 07:20:33;;;;;;;;;;;15.90;99.90;;;;;;5058831;28;19912;-75
2021/08/28 07:22:58;;;;;;;;;;;15.80;99.90;;;;;;5058719;28;20420;-72
2021/08/28 07:25:24;;;;;;;;;;;16.00;99.90;;;;;;5060368;28;19908;-72
2021/08/28 07:27:49;;;;;;;;;;;15.90;99.90;;;;;;5047707;28;20414;-74
2021/08/28 07:30:15;;;;;;;;;;;16.00;99.90;;;;;;5049695;28;19960;-75
2021/08/28 07:32:40;;;;;;;;;;;16.10;99.90;;;;;;5046179;28;19975;-73
2021/08/28 07:35:06;;;;;;;;;;;16.00;99.90;;;;;;5050247;28;19931;-72
2021/08/28 07:37:32;;;;;;;;;;;15.80;99.90;;;;;;5048547;28;19909;-72
2021/08/28 07:39:57;;;;;;;;;;;15.90;99.90;;;;;;5050111;28;20019;-72
2021/08/28 07:42:22;;;;;;;;;;;16.00;99.90;;;;;;5054411;28;20266;-74
2021/08/28 07:44:48;;;;;;;;;;;16.00;99.90;;;;;;5043896;28;20007;-74
2021/08/28 07:47:14;;;;;;;;;;;15.90;99.90;;;;;;5045775;28;19909;-74
2021/08/28 07:49:39;;;;;;;;;;;15.80;99.90;;;;;;5053395;28;19909;-74
2021/08/28 07:52:05;;;;;;;;;;;15.90;99.90;;;;;;5050186;28;19912;-74
2021/08/28 07:54:31;;;;;;;;;;;15.90;99.90;;;;;;5046419;28;20330;-74
2021/08/28 07:56:59;;;;;;;;;;;15.80;99.90;;;;;;5052326;28;19916;-73
2021/08/28 07:59:24;;;;;;;;;;;15.70;99.90;;;;;;5061639;28;19904;-72
2021/08/28 08:01:52;;;;;;;;;;;15.80;99.90;;;;;;5047305;28;19998;-73
2021/08/28 08:04:17;;;;;;;;;;;15.80;99.90;;;;;;5032813;28;19917;-73
2021/08/28 08:06:43;;;;;;;;;;;15.80;99.90;;;;;;5048053;28;19908;-73
2021/08/28 08:09:08;;;;;;;;;;;15.90;99.90;;;;;;5058362;28;19912;-74
2021/08/28 08:11:34;;;;;;;;;;;15.80;99.90;;;;;;5055248;28;19920;-73
2021/08/28 08:13:59;;;;;;;;;;;15.90;99.90;;;;;;5033819;28;20374;-74
2021/08/28 08:16:25;;;;;;;;;;;15.80;99.90;;;;;;5039423;28;19924;-75
2021/08/28 08:18:52;;;;;;;;;;;15.80;99.90;;;;;;5051014;28;19909;-74
2021/08/28 08:21:17;;;;;;;;;;;15.90;99.90;;;;;;5058922;28;19912;-74
2021/08/28 08:23:43;;;;;;;;;;;15.90;99.90;;;;;;5052788;28;19932;-76
2021/08/28 08:26:09;;;;;;;;;;;16.00;99.90;;;;;;5051005;28;19908;-72
2021/08/28 08:28:35;;;;;;;;;;;15.90;99.90;;;;;;5061081;28;19909;-72
2021/08/28 08:31:00;;;;;;;;;;;15.90;99.90;;;;;;5043094;28;19909;-74
2021/08/28 08:33:26;;;;;;;;;;;15.90;99.90;;;;;;5042811;28;19909;-72
2021/08/28 08:35:51;;;;;;;;;;;15.70;99.90;;;;;;5061254;28;19909;-73
2021/08/28 08:38:17;;;;;;;;;;;15.90;99.90;;;;;;5061584;28;19908;-73
2021/08/28 08:40:43;;;;;;;;;;;16.00;99.90;;;;;;5057640;28;20015;-72
2021/08/28 08:43:08;;;;;;;;;;;16.00;99.90;;;;;;5061381;28;19955;-73
2021/08/28 08:45:34;;;;;;;;;;;16.10;99.90;;;;;;5060469;28;19908;-72
2021/08/28 08:48:00;;;;;;;;;;;16.20;99.90;;;;;;5059845;28;19931;-72
2021/08/28 08:50:25;;;;;;;;;;;16.10;99.90;;;;;;5051582;28;19964;-72
2021/08/28 08:52:52;;;;;;;;;;;15.90;99.90;;;;;;5057139;28;19908;-71
2021/08/28 08:55:19;;;;;;;;;;;15.90;99.90;;;;;;5060690;28;19947;-73
2021/08/28 08:57:45;;;;;;;;;;;16.00;99.90;;;;;;5041372;28;19913;-72
2021/08/28 09:00:11;;;;;;;;;;;16.00;99.90;;;;;;5042062;28;19912;-74
2021/08/28 09:02:36;;;;;;;;;;;16.20;99.90;;;;;;5060594;28;19929;-73
2021/08/28 09:05:03;;;;;;;;;;;16.10;99.90;;;;;;5060708;28;20365;-74
2021/08/28 09:07:28;;;;;;;;;;;16.30;99.90;;;;;;5041350;28;19916;-73
2021/08/28 09:09:54;;;;;;;;;;;16.50;99.90;;;;;;5059312;28;19908;-73
2021/08/28 09:12:19;;;;;;;;;;;16.50;99.90;;;;;;5042749;28;19917;-74
2021/08/28 09:14:44;;;;;;;;;;;16.40;99.90;;;;;;5043057;28;20358;-74
2021/08/28 09:17:20;;;;;;;;;;;16.40;99.90;;;;;;5061885;28;19923;-74
2021/08/28 09:19:50;;;;;;;;;;;16.50;99.90;;;;;;5061907;28;19948;-73
2021/08/28 09:22:42;;;;;;;;;;;16.70;99.90;;;;;;5062467;28;19987;-73
2021/08/28 09:25:07;;;;;;;;;;;16.60;99.90;;;;;;5041514;28;19935;-73
2021/08/28 09:27:34;;;;;;;;;;;16.90;99.90;;;;;;5059941;28;19970;-75
2021/08/28 09:30:00;;;;;;;;;;;16.80;99.90;;;;;;5059589;28;19908;-76
2021/08/28 09:32:26;;;;;;;;;;;16.60;99.90;;;;;;5058772;28;19909;-72
2021/08/28 09:34:51;;;;;;;;;;;16.80;99.90;;;;;;5058897;28;19912;-73
2021/08/28 09:37:16;;;;;;;;;;;17.00;99.90;;;;;;5046690;28;19920;-72
2021/08/28 09:39:43;;;;;;;;;;;17.20;99.90;;;;;;5047645;28;20342;-74
2021/08/28 09:42:11;;;;;;;8.57;7.50;;;17.20;99.90;;;;;;5056664;28;20347;-73
2021/08/28 09:44:42;;;;;;;9.23;8.40;;;17.10;99.90;;;;;;5058248;28;20494;-73
2021/08/28 09:47:12;;;;;;;8.23;7.50;;;17.20;99.90;;;;;;5027763;28;20487;-72
2021/08/28 09:49:40;;;;;;;12.70;8.43;;;17.30;99.90;;;;;;5060247;28;20924;-73
2021/08/28 09:52:09;;;;;;;9.53;8.50;;;17.30;99.90;;;;;;5033375;28;20186;-73
2021/08/28 09:54:40;;;;;;;9.87;8.97;;;17.40;99.90;;;;;;5046796;28;20464;-73
2021/08/28 09:57:06;;;;;;;13.83;8.70;;;17.30;99.90;;;;;;5039790;28;20435;-73
2021/08/28 09:59:31;;;;;;;9.77;8.77;;;17.20;99.90;;;;;;5058893;28;20487;-72
2021/08/28 10:01:57;;;;;;;8.77;7.97;;;17.30;99.90;;;;;;5058323;28;20197;-72
2021/08/28 10:04:23;;;;;;;11.90;9.17;;;17.30;99.90;;;;;;5058556;28;20305;-72
2021/08/28 10:06:49;;;;;;;9.27;8.20;;;17.40;99.90;;;;;;5058566;28;20171;-72
2021/08/28 10:09:17;;;;;;;9.17;8.27;;;17.30;99.90;;;;;;5058561;28;20181;-74
2021/08/28 10:11:46;;;;;;;9.33;8.33;;;17.20;99.90;;;;;;5059303;28;20559;-74
2021/08/28 10:14:18;;;;;;;13.03;8.97;;;17.10;99.90;;;;;;5061161;28;20425;-72
2021/08/28 10:16:47;;;;;;;9.13;8.10;;;17.10;99.90;;;;;;5053738;28;20424;-72
2021/08/28 10:19:15;;;;;;;9.40;8.50;;;17.20;99.90;;;;;;5055203;28;20482;-74
2021/08/28 10:21:46;;;;;;;10.97;8.63;;;17.20;99.90;;;;;;5055468;28;20828;-73
2021/08/28 10:24:14;;;;;;;8.70;7.90;;;17.30;99.90;;;;;;5056395;28;20813;-73
2021/08/28 10:26:42;;;;;;;8.43;7.57;;;17.30;99.90;;;;;;5037141;28;20519;-72
2021/08/28 10:29:08;;;;;;;10.30;9.10;;;17.40;99.90;;;;;;5034762;28;20447;-72
2021/08/28 10:31:34;;;;;;;9.40;8.60;;;17.60;99.90;;;;;;5034977;28;20475;-72
2021/08/28 10:34:00;;;;;;;8.57;7.67;;;17.50;99.90;;;;;;5056300;28;20454;-74
2021/08/28 10:36:26;;;;;;;10.30;9.10;;;17.40;99.90;;;;;;5028496;28;20292;-72
2021/08/28 10:38:54;;;;;;;10.07;9.13;;;17.20;99.90;;;;;;5044279;28;21013;-73
2021/08/28 10:41:20;;;;;;;9.90;9.00;;;17.30;99.90;;;;;;5033273;28;20551;-73
2021/08/28 10:43:47;;;;;;;8.40;7.60;;;17.40;99.90;;;;;;5033972;28;20465;-73
2021/08/28 10:46:21;;;;;;;8.90;8.00;;;17.40;99.90;;;;;;5052983;28;20936;-72
2021/08/28 10:48:52;;;;;;;9.60;8.70;;;17.50;99.90;;;;;;5035005;28;20478;-74
2021/08/28 10:51:26;;;;;;;8.83;7.93;;;17.70;99.90;;;;;;5052961;28;20436;-73
2021/08/28 10:53:53;;;;;;;9.40;8.47;;;17.90;99.90;;;;;;5052885;28;21024;-73
2021/08/28 10:56:19;;;;;;;8.30;7.60;;;18.00;99.90;;;;;;5053023;28;20420;-73
2021/08/28 10:58:45;;;;;;;9.20;8.30;;;18.00;99.90;;;;;;5045839;28;20531;-73
2021/08/28 11:01:11;;;;;;;8.40;7.60;;;18.10;99.90;;;;;;5036807;28;20207;-73
2021/08/28 11:03:36;;;;;;;9.57;8.75;;;18.00;99.90;;;;;;5026330;28;20556;-73
2021/08/28 11:06:19;;;;;;;8.67;7.97;;;18.10;99.90;;;;;;5047835;28;20178;-73
2021/08/28 11:08:55;;;;;;;7.93;7.10;;;18.10;99.90;;;;;;5052542;28;20174;-73
2021/08/28 11:11:37;;;;;;;8.50;7.37;;;18.40;99.90;;;;;;5053214;28;20431;-75
2021/08/28 11:14:09;;;;;;;7.70;6.90;;;18.50;99.90;;;;;;5032942;28;20471;-73
2021/08/28 11:16:41;;;;;;;7.27;6.60;;;18.70;99.90;;;;;;5039209;28;21001;-73
2021/08/28 11:19:33;;;;;;;6.80;6.20;;;18.80;99.90;;;;;;5052144;28;20562;-73
2021/08/28 11:21:58;;;;;;;7.57;6.83;;;18.80;99.90;;;;;;5033960;28;20976;-72
2021/08/28 11:24:29;;;;;;;8.47;7.53;;;18.70;99.90;;;;;;5052294;28;20554;-74
2021/08/28 11:27:03;;;;;;;9.20;6.70;;;18.50;99.90;;;;;;5052010;28;20162;-74
2021/08/28 11:29:28;;;;;;;7.20;6.50;;;18.50;99.90;;;;;;5034161;28;20428;-73
2021/08/28 11:32:13;;;;;;;7.60;6.90;;;18.40;99.90;;;;;;5051527;28;20532;-73
2021/08/28 11:34:49;;;;;;;9.00;7.53;;;18.10;99.90;;;;;;5033351;28;20240;-72
2021/08/28 11:37:27;;;;;;;7.33;6.63;;;18.00;99.90;;;;;;5052783;28;20405;-73
2021/08/28 11:39:57;;;;;;;7.20;6.40;;;18.00;99.90;;;;;;5052007;28;20511;-73
2021/08/28 11:42:23;;;;;;;6.73;6.10;;;18.20;99.90;;;;;;5051953;28;20962;-73
2021/08/28 11:44:50;;;;;;;7.53;6.80;;;18.30;99.90;;;;;;5033964;28;20478;-73
2021/08/28 11:47:17;;;;;;;7.80;7.10;;;18.40;99.90;;;;;;5033701;28;20419;-73
2021/08/28 11:49:43;;;;;;;7.70;6.90;;;18.40;99.90;;;;;;5051578;28;20287;-73
2021/08/28 11:52:09;;;;;;;8.40;7.50;;;18.40;99.90;;;;;;5046148;28;20925;-73
2021/08/28 11:54:35;;;;;;;7.43;6.57;;;18.30;99.90;;;;;;5040134;28;20442;-73
2021/08/28 11:57:01;;;;;;;7.43;6.67;;;18.10;99.90;;;;;;5047185;28;20221;-73
2021/08/28 11:59:38;;;;;;;6.97;6.30;;;18.30;99.90;;;;;;5025975;28;20193;-75
2021/08/28 12:02:04;;;;;;;7.10;6.50;;;18.30;99.90;;;;;;5052351;28;20458;-74
2021/08/28 12:04:36;;;;;;;6.93;6.20;;;18.30;99.90;;;;;;5024531;28;20489;-74
2021/08/28 12:07:04;;;;;;;6.27;5.73;;;18.30;99.90;;;;;;5042959;28;20499;-74
2021/08/28 12:09:31;;;;;;;6.77;6.03;;;18.30;99.90;;;;;;5047163;28;20433;-72
2021/08/28 12:11:57;;;;;;;6.80;6.10;;;18.30;99.90;;;;;;5050964;28;20495;-73
2021/08/28 12:14:31;;;;;;;6.70;6.20;;;18.40;99.90;;;;;;5033185;28;20731;-75
2021/08/28 12:16:58;;;;;;;6.30;5.70;;;18.50;99.90;;;;;;5050113;28;20820;-73
2021/08/28 12:19:26;;;;;;;5.70;5.27;;;18.60;99.90;;;;;;5050670;28;20404;-74
2021/08/28 12:21:56;;;;;;;5.87;5.37;;;18.90;99.90;;;;;;5049038;28;20444;-72
2021/08/28 12:24:27;;;;;;;5.00;4.60;;;19.10;99.90;;;;;;5050731;28;20479;-73
2021/08/28 12:27:03;;;;;;;7.80;6.10;;;19.20;99.90;;;;;;5050451;28;20409;-73
2021/08/28 12:29:37;;;;;;;6.60;6.00;;;19.30;99.90;;;;;;5050312;28;20428;-74
2021/08/28 12:32:17;;;;;;;7.80;7.20;;;19.30;99.90;;;;;;5032356;28;20440;-72
2021/08/28 12:34:45;;;;;;;6.17;5.67;;;19.40;99.90;;;;;;5050937;28;20443;-75
2021/08/28 12:37:15;;;;;;;8.07;6.40;;;19.50;99.90;;;;;;5050378;28;20826;-75
2021/08/28 12:39:43;;;;;;;7.80;4.97;;;19.60;99.90;;;;;;5050377;28;20921;-72
2021/08/28 12:42:14;;;;;;;5.47;5.07;;;19.70;99.90;;;;;;5032044;28;20459;-71
2021/08/28 12:44:47;;;;;;;5.63;5.10;;;19.80;99.90;;;;;;5041276;28;20992;-72
2021/08/28 12:47:15;;;;;;;5.83;5.40;;;19.90;99.90;;;;;;5036434;28;20936;-75
2021/08/28 12:49:41;;;;;;;6.90;6.30;;;20.00;99.90;;;;;;5039685;28;20778;-73
2021/08/28 12:52:11;;;;;;;6.20;5.60;;;19.90;99.90;;;;;;5032088;28;20401;-73
2021/08/28 12:54:54;;;;;;;6.30;5.77;;;20.00;99.90;;;;;;5032229;28;20486;-74
2021/08/28 12:57:26;;;;;;;5.50;5.00;;;20.00;99.90;;;;;;5050698;28;20973;-72
2021/08/28 12:59:54;;;;;;;6.30;5.80;;;20.10;99.90;;;;;;5049489;28;20412;-72
2021/08/28 13:02:29;;;;;;;5.93;5.53;;;20.30;99.90;;;;;;5050648;28;20202;-72
2021/08/28 13:04:56;;;;;;;5.50;5.10;;;20.20;99.90;;;;;;5032115;28;20466;-74
2021/08/28 13:07:30;;;;;;;6.00;5.43;;;20.10;99.90;;;;;;5050142;28;20913;-74
2021/08/28 13:10:11;;;;;;;6.33;5.20;;;20.10;99.90;;;;;;5049419;28;20422;-73
2021/08/28 13:12:43;;;;;;;6.03;5.53;;;19.90;99.90;;;;;;5049319;28;20434;-74
2021/08/28 13:15:30;;;;;;;5.00;4.60;;;19.80;99.90;;;;;;5032097;28;20459;-72
2021/08/28 13:17:56;;;;;;;5.93;5.43;;;19.60;99.90;;;;;;5031476;28;20418;-72
2021/08/28 13:20:26;;;;;;;6.80;6.20;;;19.70;99.90;;;;;;5049669;28;20467;-73
2021/08/28 13:23:15;;;;;;;6.40;5.80;;;19.40;99.90;;;;;;5049602;28;20902;-73
2021/08/28 13:25:47;;;;;;;6.33;5.73;;;19.20;99.90;;;;;;5051389;28;21050;-75
2021/08/28 13:28:26;;;;;;;5.20;4.83;;;19.20;99.90;;;;;;5032802;28;20432;-73
2021/08/28 13:30:57;;;;;;;6.07;5.50;;;19.20;99.90;;;;;;5051216;28;20511;-74
2021/08/28 13:33:32;;;;;;;5.97;5.40;;;19.10;99.90;;;;;;5051435;28;20409;-73
2021/08/28 13:36:01;;;;;;;5.23;4.77;;;19.30;99.90;;;;;;5049896;28;20408;-72
2021/08/28 13:38:27;;;;;;;6.03;4.87;;;19.50;99.90;;;;;;5030937;28;20949;-73
2021/08/28 13:40:53;;;;;;;5.50;4.93;;;19.80;99.90;;;;;;5048929;28;20428;-73
2021/08/28 13:43:23;;;;;;;5.33;4.90;;;19.90;99.90;;;;;;5031447;28;20239;-74
2021/08/28 13:45:52;;;;;;;4.83;4.43;;;20.10;99.90;;;;;;5049299;28;21303;-73
2021/08/28 13:48:18;;;;;;;5.47;4.97;;;20.20;99.90;;;;;;5030997;28;20450;-73